Victoria, Alabama
Current Conditions -  °F | °C
As of 5:56 AM on Thursday 23 Oct 2014 (Local Time) from KSXS Reporting Station
Clear Clear  
Wind Chill: 42°   Ceiling: Unl
Heat Index: 45°   Visibility: 10mi
Dew Point: 43°   Wind: 5mph
Humidity: 94%   Direction: 10°N
Pressure: 30.1"   Gusts: NA
Location:  31.5584°N, 86.0569°W
Report Text: KSXS 231056Z AUTO 01004KT 10SM CLR 07/06 A3010 RMK AO2 SLP194 T00700061
Loading
Personal Weather Stations






























Interactive Weather Map
Tropical Storm Tracking
New forecast layout! Learn more

10-Day Weather Forecast

Advertisements
Track Severe Weather on mobile